Alamo, Georgia
Current Conditions -  °F | °C
As of 8:15 AM on Thursday 30 Oct 2014 (Local Time) from KAZE Reporting Station
Broken Clouds Broken Clouds  
Wind Chill: 58°   Ceiling: 9500
Heat Index: 58°   Visibility: 10mi
Dew Point: 51°   Wind: 6mph
Humidity: 77%   Direction: 330°NNW
Pressure: 30.01"   Gusts: NA
Location:  32.15°N, 82.78°W
Report Text: KAZE 301215Z AUTO 33005KT 10SM BKN095 14/11 A3001 RMK AO2 T01440105
Loading
Personal Weather Stations






























Interactive Weather Map New forecast layout! Learn more

10-Day Weather Forecast

Advertisements
Track Severe Weather on mobile